createdAt,value
2018-12-29T00:00:23.147Z,0
2018-12-29T00:01:25.293Z,0
2018-12-29T00:02:27.715Z,0
2018-12-29T00:03:29.846Z,0
2018-12-29T00:04:32.270Z,0
2018-12-29T00:05:34.402Z,0
2018-12-29T00:06:36.933Z,0
2018-12-29T00:07:39.075Z,0
2018-12-29T00:08:41.198Z,0
2018-12-29T00:09:43.333Z,0
2018-12-29T00:10:45.474Z,0
2018-12-29T00:11:47.609Z,0
2018-12-29T00:12:49.715Z,0
2018-12-29T00:13:51.852Z,0
2018-12-29T00:14:56.494Z,0
2018-12-29T00:15:58.922Z,0
2018-12-29T00:17:01.448Z,0
2018-12-29T00:18:03.565Z,0
2018-12-29T00:19:05.701Z,0
2018-12-29T00:20:07.853Z,0
2018-12-29T00:21:09.983Z,0
2018-12-29T00:22:12.132Z,0
2018-12-29T00:23:14.289Z,0
2018-12-29T00:24:16.448Z,0
2018-12-29T00:25:18.592Z,0
2018-12-29T00:26:20.741Z,0
2018-12-29T00:27:22.965Z,0
2018-12-29T00:28:25.099Z,0
2018-12-29T00:29:27.241Z,0
2018-12-29T00:30:29.362Z,0
2018-12-29T00:31:31.507Z,0
2018-12-29T00:32:33.646Z,0
2018-12-29T00:33:36.081Z,0
2018-12-29T00:34:38.223Z,0
2018-12-29T00:35:40.345Z,0
2018-12-29T00:36:42.490Z,0
2018-12-29T00:37:44.641Z,0
2018-12-29T00:38:47.156Z,0
2018-12-29T00:39:49.304Z,0
2018-12-29T00:40:51.443Z,0
2018-12-29T00:41:54.172Z,0
2018-12-29T00:42:56.326Z,0
2018-12-29T00:43:58.477Z,0
2018-12-29T00:45:04.462Z,0
2018-12-29T00:46:06.612Z,0
2018-12-29T00:47:08.772Z,0
2018-12-29T00:48:11.299Z,0
2018-12-29T00:49:13.428Z,0
2018-12-29T00:50:15.571Z,0
2018-12-29T00:51:17.698Z,0
2018-12-29T00:52:19.845Z,0
2018-12-29T00:53:22.076Z,0
2018-12-29T00:54:24.193Z,0
2018-12-29T00:55:26.904Z,0
2018-12-29T00:56:29.067Z,0
2018-12-29T00:57:31.213Z,0
2018-12-29T00:58:33.367Z,0
2018-12-29T00:59:35.790Z,0
2018-12-29T01:00:37.920Z,0
2018-12-29T01:01:40.046Z,0
2018-12-29T01:02:42.198Z,0
2018-12-29T01:03:44.335Z,0
2018-12-29T01:04:46.464Z,0
2018-12-29T01:05:48.592Z,0
2018-12-29T01:06:50.735Z,0
2018-12-29T01:07:52.870Z,0
2018-12-29T01:08:55.004Z,0
2018-12-29T01:09:57.151Z,0
2018-12-29T01:10:59.286Z,0
2018-12-29T01:12:01.417Z,0
2018-12-29T01:13:03.601Z,0
2018-12-29T01:14:07.541Z,0
2018-12-29T01:15:11.603Z,0
2018-12-29T01:16:13.744Z,0
2018-12-29T01:17:16.179Z,0
2018-12-29T01:18:18.603Z,0
2018-12-29T01:19:20.738Z,0
2018-12-29T01:20:22.889Z,0
2018-12-29T01:21:25.028Z,0
2018-12-29T01:22:27.165Z,0
2018-12-29T01:23:29.298Z,0
2018-12-29T01:24:31.446Z,0
2018-12-29T01:25:33.574Z,0
2018-12-29T01:26:36.087Z,0
2018-12-29T01:27:38.303Z,0
2018-12-29T01:28:40.439Z,0
2018-12-29T01:29:42.560Z,0
2018-12-29T01:30:44.693Z,0
2018-12-29T01:31:46.839Z,0
2018-12-29T01:32:48.985Z,0
2018-12-29T01:33:51.401Z,0
2018-12-29T01:34:53.940Z,0
2018-12-29T01:35:56.473Z,0
2018-12-29T01:36:58.883Z,0
2018-12-29T01:38:01.021Z,0
2018-12-29T01:39:03.166Z,0
2018-12-29T01:40:05.311Z,0
2018-12-29T01:41:07.440Z,0
2018-12-29T01:42:09.595Z,0
2018-12-29T01:43:11.706Z,0
2018-12-29T01:44:13.857Z,0
2018-12-29T01:45:19.072Z,0
2018-12-29T01:46:21.206Z,0
2018-12-29T01:47:23.327Z,0
2018-12-29T01:48:25.742Z,0
2018-12-29T01:49:27.907Z,0
2018-12-29T01:50:30.039Z,0
2018-12-29T01:51:32.189Z,0
2018-12-29T01:52:34.314Z,0
2018-12-29T01:53:36.480Z,0
2018-12-29T01:54:38.771Z,0
2018-12-29T01:55:40.895Z,0
2018-12-29T01:56:43.341Z,0
2018-12-29T01:57:45.496Z,0
2018-12-29T01:58:47.637Z,0
2018-12-29T01:59:49.769Z,0
2018-12-29T02:00:52.174Z,0
2018-12-29T02:01:54.314Z,0
2018-12-29T02:02:56.723Z,0
2018-12-29T02:03:58.865Z,0
2018-12-29T02:05:01.300Z,0
2018-12-29T02:06:03.424Z,0
2018-12-29T02:07:05.555Z,0
2018-12-29T02:08:07.695Z,0
2018-12-29T02:09:09.826Z,0
2018-12-29T02:10:11.964Z,0
2018-12-29T02:11:14.380Z,0
2018-12-29T02:12:16.523Z,0
2018-12-29T02:13:18.737Z,0
2018-12-29T02:14:21.158Z,0
2018-12-29T02:15:26.252Z,0
2018-12-29T02:16:28.798Z,0
2018-12-29T02:17:31.215Z,0
2018-12-29T02:18:33.351Z,0
2018-12-29T02:19:35.506Z,0
2018-12-29T02:20:37.629Z,0
2018-12-29T02:21:39.762Z,0
2018-12-29T02:22:41.910Z,0
2018-12-29T02:23:44.046Z,0
2018-12-29T02:24:46.190Z,0
2018-12-29T02:25:48.332Z,0
2018-12-29T02:26:50.459Z,0
2018-12-29T02:27:52.878Z,0
2018-12-29T02:28:54.990Z,0
2018-12-29T02:29:57.123Z,0
2018-12-29T02:30:59.574Z,0
2018-12-29T02:32:01.716Z,0
2018-12-29T02:33:04.409Z,0
2018-12-29T02:34:06.559Z,0
2018-12-29T02:35:08.686Z,0
2018-12-29T02:36:11.227Z,0
2018-12-29T02:37:13.683Z,0
2018-12-29T02:38:15.807Z,0
2018-12-29T02:39:18.246Z,0
2018-12-29T02:40:20.448Z,0
2018-12-29T02:41:23.014Z,0
2018-12-29T02:42:25.148Z,0
2018-12-29T02:43:27.309Z,0
2018-12-29T02:44:29.458Z,0
2018-12-29T02:45:34.838Z,0
2018-12-29T02:46:36.992Z,0
2018-12-29T02:47:39.142Z,0
2018-12-29T02:48:41.295Z,0
2018-12-29T02:49:43.449Z,0
2018-12-29T02:50:45.667Z,0
2018-12-29T02:51:47.815Z,0
2018-12-29T02:52:50.254Z,0
2018-12-29T02:53:52.392Z,0
2018-12-29T02:54:54.936Z,0
2018-12-29T02:55:57.092Z,0
2018-12-29T02:56:59.321Z,0
2018-12-29T02:58:01.742Z,0
2018-12-29T02:59:04.465Z,0
2018-12-29T03:00:06.633Z,0
2018-12-29T03:01:08.761Z,0
2018-12-29T03:02:10.913Z,0
2018-12-29T03:03:13.093Z,0
2018-12-29T03:04:15.522Z,0
2018-12-29T03:05:17.952Z,0
2018-12-29T03:06:20.066Z,0
2018-12-29T03:07:22.253Z,0
2018-12-29T03:08:24.396Z,0
2018-12-29T03:09:26.533Z,0
2018-12-29T03:10:28.974Z,0
2018-12-29T03:11:31.112Z,0
2018-12-29T03:12:33.236Z,0
2018-12-29T03:13:35.384Z,0
2018-12-29T03:14:37.560Z,0
2018-12-29T03:15:43.219Z,0
2018-12-29T03:16:45.373Z,0
2018-12-29T03:17:47.819Z,0
2018-12-29T03:18:50.412Z,0
2018-12-29T03:19:52.559Z,0
2018-12-29T03:20:54.702Z,0
2018-12-29T03:21:57.174Z,0
2018-12-29T03:22:59.312Z,0
2018-12-29T03:24:01.463Z,0
2018-12-29T03:25:03.625Z,0
2018-12-29T03:26:05.799Z,0
2018-12-29T03:27:07.949Z,0
2018-12-29T03:28:10.133Z,0
2018-12-29T03:29:12.270Z,0
2018-12-29T03:30:14.729Z,0
2018-12-29T03:31:17.301Z,0
2018-12-29T03:32:20.361Z,0
2018-12-29T03:33:22.554Z,0
2018-12-29T03:34:24.682Z,0
2018-12-29T03:35:26.834Z,0
2018-12-29T03:36:28.988Z,0
2018-12-29T03:37:31.152Z,0
2018-12-29T03:38:33.304Z,0
2018-12-29T03:39:35.772Z,0
2018-12-29T03:40:37.924Z,0
2018-12-29T03:41:40.066Z,0
2018-12-29T03:42:42.207Z,0
2018-12-29T03:43:44.354Z,0
2018-12-29T03:44:46.460Z,0
2018-12-29T03:45:50.806Z,0
2018-12-29T03:46:52.954Z,0
2018-12-29T03:47:55.098Z,0
2018-12-29T03:48:57.502Z,0
2018-12-29T03:49:59.712Z,0
2018-12-29T03:51:02.631Z,0
2018-12-29T03:52:04.777Z,0
2018-12-29T03:53:06.913Z,0
2018-12-29T03:54:09.065Z,0
2018-12-29T03:55:11.494Z,0
2018-12-29T03:56:13.931Z,0
2018-12-29T03:57:16.364Z,0
2018-12-29T03:58:18.491Z,0
2018-12-29T03:59:20.634Z,0
2018-12-29T04:00:23.094Z,0
2018-12-29T04:01:25.226Z,0
2018-12-29T04:02:27.385Z,0
2018-12-29T04:03:29.528Z,0
2018-12-29T04:04:31.687Z,0
2018-12-29T04:05:34.114Z,0
2018-12-29T04:06:36.536Z,0
2018-12-29T04:07:39.342Z,0
2018-12-29T04:08:41.513Z,0
2018-12-29T04:09:43.664Z,0
2018-12-29T04:10:45.801Z,0
2018-12-29T04:11:47.945Z,0
2018-12-29T04:12:50.538Z,0
2018-12-29T04:13:53.070Z,0
2018-12-29T04:14:55.213Z,0
2018-12-29T04:15:59.712Z,0
2018-12-29T04:17:01.884Z,0
2018-12-29T04:18:04.335Z,0
2018-12-29T04:19:06.748Z,0
2018-12-29T04:20:08.924Z,0
2018-12-29T04:21:11.387Z,0
2018-12-29T04:22:13.560Z,0
2018-12-29T04:23:15.672Z,0
2018-12-29T04:24:17.793Z,0
2018-12-29T04:25:19.936Z,0
2018-12-29T04:26:22.072Z,0
2018-12-29T04:27:24.590Z,0
2018-12-29T04:28:27.101Z,0
2018-12-29T04:29:29.250Z,0
2018-12-29T04:30:31.390Z,0
2018-12-29T04:31:33.529Z,0
2018-12-29T04:32:35.964Z,0
2018-12-29T04:33:38.098Z,0
2018-12-29T04:34:40.246Z,0
2018-12-29T04:35:42.416Z,0
2018-12-29T04:36:44.550Z,0
2018-12-29T04:37:46.675Z,0
2018-12-29T04:38:48.795Z,0
2018-12-29T04:39:50.937Z,0
2018-12-29T04:40:53.062Z,0
2018-12-29T04:41:55.208Z,0
2018-12-29T04:42:57.338Z,0
2018-12-29T04:43:59.478Z,0
2018-12-29T04:45:01.904Z,0
2018-12-29T04:46:06.769Z,0
2018-12-29T04:47:08.905Z,0
2018-12-29T04:48:11.044Z,0
2018-12-29T04:49:13.193Z,0
2018-12-29T04:50:15.352Z,0
2018-12-29T04:51:17.476Z,0
2018-12-29T04:52:19.606Z,0
2018-12-29T04:53:21.753Z,0
2018-12-29T04:54:23.889Z,0
2018-12-29T04:55:26.006Z,0
2018-12-29T04:56:28.124Z,0
2018-12-29T04:57:30.265Z,0
2018-12-29T04:58:32.398Z,0
2018-12-29T04:59:34.533Z,0
2018-12-29T05:00:36.681Z,0
2018-12-29T05:01:38.829Z,0
2018-12-29T05:02:40.957Z,0
2018-12-29T05:03:43.062Z,0
2018-12-29T05:04:45.287Z,0
2018-12-29T05:05:47.478Z,0
2018-12-29T05:06:49.616Z,0
2018-12-29T05:07:51.749Z,0
2018-12-29T05:08:53.895Z,0
2018-12-29T05:09:56.028Z,0
2018-12-29T05:10:58.830Z,0
2018-12-29T05:12:00.967Z,0
2018-12-29T05:13:03.103Z,0
2018-12-29T05:14:05.248Z,0
2018-12-29T05:15:07.696Z,0
2018-12-29T05:16:14.601Z,0
2018-12-29T05:17:16.767Z,0
2018-12-29T05:18:18.884Z,0
2018-12-29T05:19:21.360Z,0
2018-12-29T05:20:23.487Z,0
2018-12-29T05:21:25.619Z,0
2018-12-29T05:22:27.764Z,0
2018-12-29T05:23:29.884Z,0
2018-12-29T05:24:32.015Z,0
2018-12-29T05:25:34.162Z,0
2018-12-29T05:26:36.298Z,0
2018-12-29T05:27:38.444Z,0
2018-12-29T05:28:40.632Z,0
2018-12-29T05:29:42.778Z,0
2018-12-29T05:30:44.902Z,0
2018-12-29T05:31:47.056Z,0
2018-12-29T05:32:49.197Z,0
2018-12-29T05:33:51.341Z,0
2018-12-29T05:34:53.484Z,0
2018-12-29T05:35:55.613Z,0
2018-12-29T05:36:57.731Z,0
2018-12-29T05:37:59.885Z,0
2018-12-29T05:39:02.040Z,0
2018-12-29T05:40:04.169Z,0
2018-12-29T05:41:06.306Z,0
2018-12-29T05:42:08.418Z,0
2018-12-29T05:43:10.836Z,0
2018-12-29T05:44:13.356Z,0
2018-12-29T05:45:15.483Z,0
2018-12-29T05:46:21.948Z,0
2018-12-29T05:47:24.103Z,0
2018-12-29T05:48:26.638Z,0
2018-12-29T05:49:28.787Z,0
2018-12-29T05:50:30.914Z,0
2018-12-29T05:51:33.034Z,0
2018-12-29T05:52:35.149Z,0
2018-12-29T05:53:37.289Z,0
2018-12-29T05:54:39.438Z,0
2018-12-29T05:55:41.571Z,0
2018-12-29T05:56:43.701Z,0
2018-12-29T05:57:45.922Z,0
2018-12-29T05:58:48.069Z,0
2018-12-29T05:59:50.212Z,0
2018-12-29T06:00:52.359Z,0
2018-12-29T06:01:54.797Z,0
2018-12-29T06:02:56.928Z,0
2018-12-29T06:03:59.054Z,0
2018-12-29T06:05:01.229Z,0
2018-12-29T06:06:03.351Z,0
2018-12-29T06:07:05.477Z,0
2018-12-29T06:08:08.001Z,0
2018-12-29T06:09:10.151Z,0
2018-12-29T06:10:12.275Z,0
2018-12-29T06:11:14.420Z,0
2018-12-29T06:12:16.570Z,0
2018-12-29T06:13:18.711Z,0
2018-12-29T06:14:20.839Z,0
2018-12-29T06:15:22.983Z,0
2018-12-29T06:16:29.233Z,0
2018-12-29T06:17:31.355Z,0
2018-12-29T06:18:33.496Z,0
2018-12-29T06:19:35.616Z,0
2018-12-29T06:20:37.764Z,0
2018-12-29T06:21:40.164Z,0
2018-12-29T06:22:42.275Z,0
2018-12-29T06:23:44.412Z,0
2018-12-29T06:24:46.558Z,0
2018-12-29T06:25:49.103Z,0
2018-12-29T06:26:51.507Z,0
2018-12-29T06:27:53.679Z,0
2018-12-29T06:28:55.819Z,0
2018-12-29T06:29:58.215Z,0
2018-12-29T06:31:00.643Z,0
2018-12-29T06:32:02.785Z,0
2018-12-29T06:33:04.941Z,0
2018-12-29T06:34:07.069Z,0
2018-12-29T06:35:09.287Z,0
2018-12-29T06:36:11.473Z,0
2018-12-29T06:37:13.597Z,0
2018-12-29T06:38:15.740Z,0
2018-12-29T06:39:17.875Z,0
2018-12-29T06:40:20.411Z,0
2018-12-29T06:41:22.548Z,0
2018-12-29T06:42:24.687Z,0
2018-12-29T06:43:26.843Z,0
2018-12-29T06:44:28.988Z,0
2018-12-29T06:45:31.138Z,0
2018-12-29T06:46:36.506Z,0
2018-12-29T06:47:38.652Z,0
2018-12-29T06:48:41.485Z,0
2018-12-29T06:49:43.631Z,0
2018-12-29T06:50:45.769Z,0
2018-12-29T06:51:47.926Z,0
2018-12-29T06:52:50.081Z,0
2018-12-29T06:53:52.300Z,0
2018-12-29T06:54:54.433Z,0
2018-12-29T06:55:56.595Z,0
2018-12-29T06:56:58.740Z,0
2018-12-29T06:58:01.547Z,0
2018-12-29T06:59:03.731Z,0
2018-12-29T07:00:05.852Z,0
2018-12-29T07:01:08.375Z,0
2018-12-29T07:02:10.526Z,0
2018-12-29T07:03:12.664Z,0
2018-12-29T07:04:14.812Z,0
2018-12-29T07:05:16.944Z,0
2018-12-29T07:06:19.072Z,0
2018-12-29T07:07:21.198Z,0
2018-12-29T07:08:23.339Z,0
2018-12-29T07:09:25.479Z,0
2018-12-29T07:10:27.895Z,0
2018-12-29T07:11:30.050Z,0
2018-12-29T07:12:32.273Z,0
2018-12-29T07:13:34.419Z,0
2018-12-29T07:14:36.552Z,0
2018-12-29T07:15:38.705Z,0
2018-12-29T07:16:44.081Z,0
2018-12-29T07:17:46.515Z,0
2018-12-29T07:18:48.645Z,0
2018-12-29T07:19:50.772Z,0
2018-12-29T07:20:52.908Z,0
2018-12-29T07:21:55.640Z,0
2018-12-29T07:22:57.775Z,0
2018-12-29T07:23:59.921Z,0
2018-12-29T07:25:02.058Z,0
2018-12-29T07:26:04.199Z,0
2018-12-29T07:27:06.327Z,0
2018-12-29T07:28:08.477Z,0
2018-12-29T07:29:10.617Z,0
2018-12-29T07:30:12.753Z,0
2018-12-29T07:31:14.895Z,0
2018-12-29T07:32:17.005Z,0
2018-12-29T07:33:19.133Z,0
2018-12-29T07:34:21.284Z,0
2018-12-29T07:35:23.723Z,1
2018-12-29T07:36:25.891Z,1
2018-12-29T07:37:28.040Z,1
2018-12-29T07:38:30.189Z,1
2018-12-29T07:39:32.353Z,1
2018-12-29T07:40:34.857Z,1
2018-12-29T07:41:38.545Z,1
2018-12-29T07:42:40.765Z,1
2018-12-29T07:43:42.911Z,1
2018-12-29T07:44:45.317Z,1
2018-12-29T07:45:47.446Z,1
2018-12-29T07:46:51.401Z,1
2018-12-29T07:47:53.534Z,1
2018-12-29T07:48:55.681Z,2
2018-12-29T07:49:58.089Z,2
2018-12-29T07:51:00.494Z,2
2018-12-29T07:52:02.622Z,2
2018-12-29T07:53:04.761Z,2
2018-12-29T07:54:06.906Z,2
2018-12-29T07:55:09.335Z,2
2018-12-29T07:56:11.453Z,2
2018-12-29T07:57:13.576Z,2
2018-12-29T07:58:15.707Z,2
2018-12-29T07:59:17.862Z,2
2018-12-29T08:00:20.120Z,2
2018-12-29T08:01:22.261Z,3
2018-12-29T08:02:24.406Z,3
2018-12-29T08:03:26.550Z,3
2018-12-29T08:04:28.684Z,3
2018-12-29T08:05:32.414Z,3
2018-12-29T08:06:34.629Z,3
2018-12-29T08:07:36.805Z,4
2018-12-29T08:08:39.352Z,4
2018-12-29T08:09:41.786Z,4
2018-12-29T08:10:43.945Z,4
2018-12-29T08:11:46.088Z,4
2018-12-29T08:12:48.239Z,4
2018-12-29T08:13:50.357Z,3
2018-12-29T08:14:52.492Z,3
2018-12-29T08:15:54.630Z,4
2018-12-29T08:16:58.318Z,5
2018-12-29T08:18:00.809Z,5
2018-12-29T08:19:02.927Z,5
2018-12-29T08:20:05.094Z,4
2018-12-29T08:21:07.232Z,5
2018-12-29T08:22:09.347Z,4
2018-12-29T08:23:11.499Z,4
2018-12-29T08:24:13.634Z,5
2018-12-29T08:25:15.780Z,5
2018-12-29T08:26:17.914Z,5
2018-12-29T08:27:20.053Z,5
2018-12-29T08:28:22.472Z,6
2018-12-29T08:29:24.894Z,6
2018-12-29T08:30:27.298Z,6
2018-12-29T08:31:29.709Z,5
2018-12-29T08:32:32.145Z,5
2018-12-29T08:33:34.289Z,5
2018-12-29T08:34:36.423Z,5
2018-12-29T08:35:38.859Z,5
2018-12-29T08:36:40.990Z,5
2018-12-29T08:37:43.136Z,6
2018-12-29T08:38:45.295Z,6
2018-12-29T08:39:48.011Z,6
2018-12-29T08:40:50.135Z,6
2018-12-29T08:41:52.264Z,7
2018-12-29T08:42:54.693Z,7
2018-12-29T08:43:56.831Z,9
2018-12-29T08:44:58.963Z,8
2018-12-29T08:46:01.476Z,8
2018-12-29T08:47:06.086Z,8
2018-12-29T08:48:08.230Z,9
2018-12-29T08:49:10.365Z,8
2018-12-29T08:50:14.725Z,10
2018-12-29T08:51:16.876Z,10
2018-12-29T08:52:19.319Z,11
2018-12-29T08:53:21.456Z,10
2018-12-29T08:54:23.597Z,11
2018-12-29T08:55:25.725Z,10
2018-12-29T08:56:27.899Z,11
2018-12-29T08:57:30.326Z,9
2018-12-29T08:58:32.485Z,13
2018-12-29T08:59:34.918Z,13
2018-12-29T09:00:37.347Z,8
2018-12-29T09:01:39.511Z,10
2018-12-29T09:02:41.946Z,10
2018-12-29T09:03:44.097Z,11
2018-12-29T09:04:47.886Z,11
2018-12-29T09:05:50.023Z,12
2018-12-29T09:06:52.175Z,14
2018-12-29T09:07:54.580Z,16
2018-12-29T09:08:56.793Z,21
2018-12-29T09:09:59.529Z,21
2018-12-29T09:11:01.670Z,21
2018-12-29T09:12:03.827Z,22
2018-12-29T09:13:05.956Z,21
2018-12-29T09:14:08.106Z,16
2018-12-29T09:15:10.241Z,18
2018-12-29T09:16:12.785Z,17
2018-12-29T09:17:14.925Z,15
2018-12-29T09:18:17.057Z,14
2018-12-29T09:19:19.187Z,13
2018-12-29T09:20:21.334Z,11
2018-12-29T09:21:23.468Z,11
2018-12-29T09:22:25.616Z,13
2018-12-29T09:23:28.443Z,14
2018-12-29T09:24:30.587Z,16
2018-12-29T09:25:32.730Z,15
2018-12-29T09:26:35.175Z,14
2018-12-29T09:27:37.638Z,14
2018-12-29T09:28:39.792Z,12
2018-12-29T09:29:41.935Z,11
2018-12-29T09:30:44.076Z,10
2018-12-29T09:31:46.231Z,11
2018-12-29T09:32:48.660Z,10
2018-12-29T09:33:50.805Z,12
2018-12-29T09:34:52.954Z,16
2018-12-29T09:35:56.943Z,16
2018-12-29T09:36:59.459Z,16
2018-12-29T09:38:01.607Z,14
2018-12-29T09:39:03.750Z,12
2018-12-29T09:40:05.892Z,9
2018-12-29T09:41:08.343Z,9
2018-12-29T09:42:10.489Z,8
2018-12-29T09:43:12.619Z,9
2018-12-29T09:44:14.762Z,8
2018-12-29T09:45:16.913Z,8
2018-12-29T09:46:19.354Z,7
2018-12-29T09:47:21.501Z,7
2018-12-29T09:48:23.953Z,6
2018-12-29T09:49:26.098Z,6
2018-12-29T09:50:28.228Z,6
2018-12-29T09:51:30.356Z,6
2018-12-29T09:52:32.515Z,7
2018-12-29T09:53:34.669Z,7
2018-12-29T09:54:36.802Z,7
2018-12-29T09:55:39.207Z,9
2018-12-29T09:56:41.365Z,8
2018-12-29T09:57:43.518Z,8
2018-12-29T09:58:45.930Z,9
2018-12-29T09:59:48.351Z,7
2018-12-29T10:00:50.837Z,6
2018-12-29T10:01:53.773Z,6
2018-12-29T10:02:55.902Z,7
2018-12-29T10:03:58.061Z,9
2018-12-29T10:05:00.250Z,9
2018-12-29T10:06:02.791Z,8
2018-12-29T10:07:05.223Z,8
2018-12-29T10:08:07.355Z,10
2018-12-29T10:09:09.511Z,11
2018-12-29T10:10:11.641Z,9
2018-12-29T10:11:13.780Z,9
2018-12-29T10:12:15.930Z,9
2018-12-29T10:13:18.069Z,8
2018-12-29T10:14:20.190Z,9
2018-12-29T10:15:22.350Z,8
2018-12-29T10:16:24.482Z,8
2018-12-29T10:17:30.176Z,7
2018-12-29T10:18:32.297Z,8
2018-12-29T10:19:34.433Z,9
2018-12-29T10:20:36.584Z,6
2018-12-29T10:21:38.990Z,7
2018-12-29T10:22:41.140Z,10
2018-12-29T10:23:43.662Z,11
2018-12-29T10:24:45.806Z,7
2018-12-29T10:25:48.641Z,8
2018-12-29T10:26:50.845Z,10
2018-12-29T10:27:52.966Z,14
2018-12-29T10:28:55.113Z,17
2018-12-29T10:29:57.242Z,17
2018-12-29T10:30:59.678Z,15
2018-12-29T10:32:01.808Z,18
2018-12-29T10:33:03.926Z,24
2018-12-29T10:34:06.082Z,24
2018-12-29T10:35:08.615Z,24
2018-12-29T10:36:10.734Z,22
2018-12-29T10:37:12.963Z,20
2018-12-29T10:38:15.100Z,15
2018-12-29T10:39:17.243Z,10
2018-12-29T10:40:19.473Z,8
2018-12-29T10:41:21.618Z,8
2018-12-29T10:42:23.736Z,7
2018-12-29T10:43:25.854Z,8
2018-12-29T10:44:27.998Z,9
2018-12-29T10:45:30.190Z,10
2018-12-29T10:46:32.320Z,8
2018-12-29T10:47:36.090Z,7
2018-12-29T10:48:38.258Z,8
2018-12-29T10:49:40.406Z,8
2018-12-29T10:50:42.549Z,9
2018-12-29T10:51:44.689Z,6
2018-12-29T10:52:46.839Z,7
2018-12-29T10:53:48.991Z,9
2018-12-29T10:54:51.136Z,11
2018-12-29T10:55:53.289Z,9
2018-12-29T10:56:55.410Z,10
2018-12-29T10:57:57.809Z,8
2018-12-29T10:58:59.964Z,10
2018-12-29T11:00:02.410Z,8
2018-12-29T11:01:04.639Z,7
2018-12-29T11:02:06.867Z,5
2018-12-29T11:03:09.003Z,6
2018-12-29T11:04:11.788Z,6
2018-12-29T11:05:13.953Z,5
2018-12-29T11:06:16.094Z,5
2018-12-29T11:07:18.246Z,5
2018-12-29T11:08:20.661Z,4
2018-12-29T11:09:22.800Z,4
2018-12-29T11:10:24.930Z,5
2018-12-29T11:11:27.451Z,4
2018-12-29T11:12:29.587Z,5
2018-12-29T11:13:31.741Z,5
2018-12-29T11:14:33.897Z,6
2018-12-29T11:15:36.027Z,5
2018-12-29T11:16:38.171Z,6
2018-12-29T11:17:43.892Z,6
2018-12-29T11:18:46.109Z,5
2018-12-29T11:19:48.275Z,4
2018-12-29T11:20:50.421Z,4
2018-12-29T11:21:52.914Z,5
2018-12-29T11:22:55.063Z,4
2018-12-29T11:23:57.513Z,4
2018-12-29T11:24:59.658Z,5
2018-12-29T11:26:01.793Z,6
2018-12-29T11:27:03.929Z,5
2018-12-29T11:28:06.070Z,6
2018-12-29T11:29:08.235Z,5
2018-12-29T11:30:10.366Z,5
2018-12-29T11:31:12.516Z,3
2018-12-29T11:32:14.670Z,4
2018-12-29T11:33:16.803Z,6
2018-12-29T11:34:18.952Z,6
2018-12-29T11:35:28.493Z,6
2018-12-29T11:36:31.190Z,7
2018-12-29T11:37:33.624Z,9
2018-12-29T11:38:35.776Z,7
2018-12-29T11:39:37.914Z,9
2018-12-29T11:40:40.063Z,6
2018-12-29T11:41:42.474Z,5
2018-12-29T11:42:44.909Z,7
2018-12-29T11:43:47.083Z,10
2018-12-29T11:44:49.208Z,11
2018-12-29T11:45:51.342Z,15
2018-12-29T11:46:53.465Z,14
2018-12-29T11:47:55.625Z,13
2018-12-29T11:48:57.824Z,21
2018-12-29T11:49:59.992Z,24
2018-12-29T11:51:03.585Z,16
2018-12-29T11:52:06.270Z,15
2018-12-29T11:53:08.449Z,15
2018-12-29T11:54:10.645Z,12
2018-12-29T11:55:12.824Z,11
2018-12-29T11:56:14.991Z,13
2018-12-29T11:57:17.189Z,16
2018-12-29T11:58:19.689Z,16
2018-12-29T11:59:21.870Z,15
2018-12-29T12:00:24.370Z,17
2018-12-29T12:01:26.569Z,16
2018-12-29T12:02:28.790Z,14
2018-12-29T12:03:30.986Z,13
2018-12-29T12:04:34.046Z,14
2018-12-29T12:05:36.803Z,13
2018-12-29T12:06:39.361Z,13
2018-12-29T12:07:41.571Z,16
2018-12-29T12:08:43.771Z,14
2018-12-29T12:09:45.963Z,15
2018-12-29T12:10:48.143Z,20
2018-12-29T12:11:50.343Z,17
2018-12-29T12:12:52.505Z,16
2018-12-29T12:13:54.675Z,17
2018-12-29T12:14:56.973Z,19
2018-12-29T12:15:59.185Z,13
2018-12-29T12:17:01.355Z,13
2018-12-29T12:18:04.510Z,16
2018-12-29T12:19:08.046Z,13
2018-12-29T12:20:10.462Z,11
2018-12-29T12:21:12.667Z,12
2018-12-29T12:22:14.874Z,18
2018-12-29T12:23:17.356Z,15
2018-12-29T12:24:19.545Z,12
2018-12-29T12:25:23.201Z,10
2018-12-29T12:26:26.140Z,11
2018-12-29T12:27:30.053Z,14
2018-12-29T12:28:32.584Z,11
2018-12-29T12:29:34.809Z,9
2018-12-29T12:30:37.005Z,10
2018-12-29T12:31:40.325Z,8
2018-12-29T12:32:42.534Z,7
2018-12-29T12:33:44.715Z,8
2018-12-29T12:34:46.930Z,8
2018-12-29T12:35:50.493Z,7
2018-12-29T12:36:53.256Z,7
2018-12-29T12:37:55.465Z,9
2018-12-29T12:38:58.825Z,10
2018-12-29T12:40:01.618Z,11
2018-12-29T12:41:04.215Z,10
2018-12-29T12:42:06.747Z,8
2018-12-29T12:43:10.101Z,8
2018-12-29T12:44:14.127Z,8
2018-12-29T12:45:16.756Z,9
2018-12-29T12:46:20.395Z,11
2018-12-29T12:47:22.909Z,10
2018-12-29T12:48:26.192Z,8
2018-12-29T12:49:28.612Z,9
2018-12-29T12:50:30.864Z,8
2018-12-29T12:51:33.048Z,9
2018-12-29T12:52:35.650Z,8
2018-12-29T12:53:37.941Z,8
2018-12-29T12:54:41.559Z,8
2018-12-29T12:55:45.241Z,7
2018-12-29T12:56:48.835Z,7
2018-12-29T12:57:52.787Z,6
2018-12-29T12:58:56.536Z,6
2018-12-29T13:00:00.438Z,6
2018-12-29T13:01:04.388Z,8
2018-12-29T13:02:06.969Z,7
2018-12-29T13:03:09.464Z,8
2018-12-29T13:04:12.035Z,8
2018-12-29T13:05:14.233Z,7
2018-12-29T13:06:16.764Z,7
2018-12-29T13:07:19.303Z,7
2018-12-29T13:08:21.501Z,8
2018-12-29T13:09:23.669Z,7
2018-12-29T13:10:25.877Z,8
2018-12-29T13:11:28.053Z,7
2018-12-29T13:12:30.642Z,7
2018-12-29T13:13:33.217Z,7
2018-12-29T13:14:36.925Z,6
2018-12-29T13:15:39.469Z,6
2018-12-29T13:16:41.679Z,6
2018-12-29T13:17:43.875Z,5
2018-12-29T13:18:46.074Z,5
2018-12-29T13:19:48.264Z,4
2018-12-29T13:20:50.452Z,3
2018-12-29T13:21:52.932Z,3
2018-12-29T13:22:55.122Z,3
2018-12-29T13:23:57.331Z,3
2018-12-29T13:24:59.529Z,3
2018-12-29T13:26:01.733Z,3
2018-12-29T13:27:03.920Z,3
2018-12-29T13:28:07.250Z,3
2018-12-29T13:29:09.782Z,3
2018-12-29T13:30:12.264Z,3
2018-12-29T13:31:14.433Z,3
2018-12-29T13:32:16.624Z,3
2018-12-29T13:33:18.847Z,3
2018-12-29T13:34:21.069Z,4
2018-12-29T13:35:23.287Z,3
2018-12-29T13:36:25.515Z,4
2018-12-29T13:37:27.709Z,5
2018-12-29T13:38:29.943Z,5
2018-12-29T13:39:32.153Z,3
2018-12-29T13:40:34.326Z,3
2018-12-29T13:41:37.537Z,3
2018-12-29T13:42:40.067Z,3
2018-12-29T13:43:42.241Z,3
2018-12-29T13:44:44.410Z,5
2018-12-29T13:45:46.605Z,3
2018-12-29T13:46:48.800Z,4
2018-12-29T13:47:50.993Z,3
2018-12-29T13:48:53.186Z,3
2018-12-29T13:49:55.389Z,4
2018-12-29T13:50:57.582Z,4
2018-12-29T13:51:59.789Z,4
2018-12-29T13:53:01.976Z,4
2018-12-29T13:54:04.184Z,3
2018-12-29T13:55:07.540Z,4
2018-12-29T13:56:10.002Z,4
2018-12-29T13:57:12.497Z,5
2018-12-29T13:58:14.728Z,5
2018-12-29T13:59:16.919Z,4
2018-12-29T14:00:19.144Z,4
2018-12-29T14:01:21.339Z,3
2018-12-29T14:02:23.553Z,3
2018-12-29T14:03:25.745Z,3
2018-12-29T14:04:27.935Z,3
2018-12-29T14:05:30.148Z,2
2018-12-29T14:06:32.340Z,2
2018-12-29T14:07:34.935Z,2
2018-12-29T14:08:38.144Z,2
2018-12-29T14:09:41.359Z,2
2018-12-29T14:10:43.890Z,2
2018-12-29T14:11:46.356Z,1
2018-12-29T14:12:48.529Z,1
2018-12-29T14:13:50.734Z,1
2018-12-29T14:14:53.201Z,1
2018-12-29T14:15:55.656Z,1
2018-12-29T14:16:57.837Z,1
2018-12-29T14:18:00.003Z,1
2018-12-29T14:19:02.560Z,1
2018-12-29T14:20:04.808Z,1
2018-12-29T14:21:07.015Z,1
2018-12-29T14:22:10.669Z,1
2018-12-29T14:23:14.020Z,1
2018-12-29T14:24:17.496Z,1
2018-12-29T14:25:19.966Z,1
2018-12-29T14:26:22.157Z,1
2018-12-29T14:27:24.322Z,1
2018-12-29T14:28:26.502Z,1
2018-12-29T14:29:28.705Z,1
2018-12-29T14:30:31.198Z,1
2018-12-29T14:31:33.381Z,1
2018-12-29T14:32:35.592Z,1
2018-12-29T14:33:37.800Z,1
2018-12-29T14:34:40.012Z,1
2018-12-29T14:35:42.191Z,1
2018-12-29T14:36:44.560Z,1
2018-12-29T14:37:47.779Z,1
2018-12-29T14:38:50.169Z,0
2018-12-29T14:39:52.367Z,1
2018-12-29T14:40:54.577Z,0
2018-12-29T14:41:56.765Z,0
2018-12-29T14:42:58.939Z,0
2018-12-29T14:44:01.127Z,0
2018-12-29T14:45:03.318Z,0
2018-12-29T14:46:06.193Z,0
2018-12-29T14:47:08.407Z,0
2018-12-29T14:48:10.633Z,0
2018-12-29T14:49:12.819Z,0
2018-12-29T14:50:15.274Z,0
2018-12-29T14:51:18.807Z,0
2018-12-29T14:52:22.155Z,0
2018-12-29T14:53:24.661Z,0
2018-12-29T14:54:26.833Z,0
2018-12-29T14:55:29.028Z,0
2018-12-29T14:56:31.218Z,0
2018-12-29T14:57:33.709Z,0
2018-12-29T14:58:35.879Z,0
2018-12-29T14:59:38.376Z,0
2018-12-29T15:00:40.550Z,0
2018-12-29T15:01:42.729Z,0
2018-12-29T15:02:44.887Z,0
2018-12-29T15:03:47.134Z,0
2018-12-29T15:04:49.778Z,0
2018-12-29T15:05:52.576Z,0
2018-12-29T15:06:55.077Z,0
2018-12-29T15:07:57.279Z,0
2018-12-29T15:08:59.480Z,0
2018-12-29T15:10:01.719Z,0
2018-12-29T15:11:05.258Z,0
2018-12-29T15:12:08.042Z,0
2018-12-29T15:13:10.620Z,0
2018-12-29T15:14:13.953Z,0
2018-12-29T15:15:16.773Z,0
2018-12-29T15:16:19.011Z,0
2018-12-29T15:17:21.201Z,0